Time;durP1;ratioP1;P1;durP2;ratioP2;P2;SDS_P1;SDS_P2;PMS_P1;PMS_P2;Temp;Humidity;BMP_temperature;BMP_pressure;BME280_temperature;BME280_humidity;BME280_pressure;Samples;Min_cycle;Max_cycle;Signal;HPM_P1;HPM_P2
2023/04/08 00:00:34;;;;;;;65.10;41.30;;;;;;;8.58;54.06;101506.75;5017269;28;20457;-79
2023/04/08 00:03:01;;;;;;;64.17;40.53;;;;;;;8.53;54.14;101501.03;5029336;28;20808;-79
2023/04/08 00:05:26;;;;;;;62.88;40.47;;;;;;;8.55;54.03;101504.38;5017192;28;20877;-79
2023/04/08 00:07:51;;;;;;;53.00;34.07;;;;;;;8.56;54.11;101503.41;5024196;28;20454;-79
2023/04/08 00:10:17;;;;;;;62.20;39.00;;;;;;;8.61;53.74;101501.19;5035362;28;20878;-79
2023/04/08 00:12:43;;;;;;;50.57;32.37;;;;;;;8.57;53.91;101505.94;5029773;28;20384;-80
2023/04/08 00:15:09;;;;;;;53.47;32.37;;;;;;;8.59;53.74;101503.97;5031225;28;20422;-79
2023/04/08 00:17:34;;;;;;;43.83;29.57;;;;;;;8.57;53.88;101498.00;5035180;28;20425;-79
2023/04/08 00:20:00;;;;;;;43.47;28.63;;;;;;;8.63;54.24;101511.63;5040965;28;20396;-79
2023/04/08 00:22:25;;;;;;;44.67;28.73;;;;;;;8.54;54.41;101505.38;5017853;28;20430;-79
2023/04/08 00:24:51;;;;;;;48.37;28.50;;;;;;;8.35;54.72;101508.75;5015863;28;20482;-79
2023/04/08 00:27:16;;;;;;;47.23;27.73;;;;;;;8.03;55.90;101515.06;5027700;28;20401;-79
2023/04/08 00:29:42;;;;;;;49.50;29.40;;;;;;;8.18;55.60;101515.53;5026270;28;20384;-79
2023/04/08 00:32:07;;;;;;;51.53;31.60;;;;;;;8.27;55.19;101503.34;5032079;28;20748;-79
2023/04/08 00:34:33;;;;;;;50.57;28.57;;;;;;;8.38;54.78;101511.13;5026324;28;20386;-78
2023/04/08 00:36:58;;;;;;;47.75;27.65;;;;;;;8.34;54.74;101510.56;5019338;28;20395;-78
2023/04/08 00:39:24;;;;;;;49.17;29.23;;;;;;;8.22;55.21;101511.66;5028991;28;20391;-79
2023/04/08 00:41:49;;;;;;;47.33;28.17;;;;;;;8.18;55.33;101513.72;5018476;28;20395;-78
2023/04/08 00:44:15;;;;;;;43.50;25.65;;;;;;;8.10;55.15;101518.00;5021244;28;20525;-78
2023/04/08 00:46:40;;;;;;;40.83;23.52;;;;;;;7.70;55.73;101517.00;5017004;28;20466;-79
2023/04/08 00:49:06;;;;;;;41.37;24.63;;;;;;;7.60;56.33;101527.53;5031413;28;20399;-78
2023/04/08 00:51:35;;;;;;;39.73;24.83;;;;;;;7.62;56.59;101517.66;5018585;28;20723;-78
2023/04/08 00:54:03;;;;;;;40.92;25.73;;;;;;;7.83;55.70;101517.66;5029582;28;20428;-78
2023/04/08 00:56:29;;;;;;;35.40;23.77;;;;;;;7.91;55.63;101513.50;5027254;28;20970;-78
2023/04/08 00:58:54;;;;;;;34.23;22.30;;;;;;;7.94;55.20;101514.06;5027139;28;20399;-78
2023/04/08 01:02:05;;;;;;;33.47;21.40;;;;;;;7.87;55.44;101518.22;5030779;28;20410;-78
2023/04/08 01:04:37;;;;;;;33.03;22.13;;;;;;;7.87;55.38;101523.50;5038422;28;20531;-78
2023/04/08 01:07:16;;;;;;;32.97;20.50;;;;;;;7.80;55.52;101520.53;5030394;28;20394;-78
2023/04/08 01:09:49;;;;;;;36.75;22.67;;;;;;;7.69;55.90;101515.34;5047243;28;20413;-78
2023/04/08 01:12:21;;;;;;;37.40;23.35;;;;;;;7.69;56.07;101523.28;5044627;28;20394;-79
2023/04/08 01:14:49;;;;;;;33.85;21.35;;;;;;;7.71;55.72;101512.59;5019994;28;20860;-79
2023/04/08 01:17:18;;;;;;;33.13;20.60;;;;;;;7.65;56.31;101517.41;5032254;28;20396;-79
2023/04/08 01:19:46;;;;;;;34.87;19.80;;;;;;;7.56;56.46;101510.28;5022621;28;20386;-79
2023/04/08 01:22:42;;;;;;;34.95;20.65;;;;;;;7.63;56.31;101508.81;5035155;28;20386;-79
2023/04/08 01:25:17;;;;;;;32.65;20.67;;;;;;;7.66;56.32;101515.59;5018545;28;20407;-79
2023/04/08 01:27:43;;;;;;;30.07;20.97;;;;;;;7.58;56.16;101503.06;5034505;28;20429;-79
2023/04/08 01:30:10;;;;;;;31.70;19.88;;;;;;;7.58;56.64;101515.41;5023624;28;20402;-79
2023/04/08 01:32:37;;;;;;;31.88;19.98;;;;;;;7.63;56.43;101523.78;5015275;28;20626;-79
2023/04/08 01:35:05;;;;;;;34.22;20.10;;;;;;;7.64;56.18;101517.53;5030626;28;20410;-79
2023/04/08 01:37:31;;;;;;;29.77;19.23;;;;;;;7.56;56.45;101522.63;5020523;28;20392;-78
2023/04/08 01:39:59;;;;;;;32.20;20.52;;;;;;;7.52;56.52;101515.94;5023903;28;20391;-79
2023/04/08 01:42:27;;;;;;;29.65;19.23;;;;;;;7.57;56.29;101517.22;5013988;28;20379;-78
2023/04/08 01:44:56;;;;;;;32.15;20.13;;;;;;;7.62;56.29;101522.94;5025800;28;20477;-77
2023/04/08 01:47:23;;;;;;;28.10;18.52;;;;;;;7.63;56.20;101519.34;5013728;28;20886;-78
2023/04/08 01:49:51;;;;;;;32.67;20.27;;;;;;;7.70;56.09;101524.91;5025586;28;20404;-79
2023/04/08 01:52:18;;;;;;;31.00;19.10;;;;;;;7.71;56.24;101528.41;5025147;28;20420;-79
2023/04/08 01:54:44;;;;;;;29.73;19.00;;;;;;;7.68;55.96;101521.59;5023592;28;20391;-78
2023/04/08 01:57:16;;;;;;;32.42;19.00;;;;;;;7.82;55.85;101536.25;5017171;28;20407;-78
2023/04/08 01:59:42;;;;;;;34.20;20.00;;;;;;;7.81;55.63;101538.06;5018505;28;20422;-78
2023/04/08 02:02:08;;;;;;;32.95;19.35;;;;;;;7.82;55.55;101530.97;5023865;28;20456;-77
2023/04/08 02:04:35;;;;;;;31.70;19.08;;;;;;;7.83;55.75;101541.41;5045253;28;20417;-78
2023/04/08 02:07:01;;;;;;;32.85;18.90;;;;;;;7.80;55.89;101535.53;5028079;28;20392;-78
2023/04/08 02:09:27;;;;;;;30.15;18.33;;;;;;;7.71;55.89;101529.25;5027001;28;20390;-77
2023/04/08 02:11:52;;;;;;;27.77;18.57;;;;;;;7.69;56.18;101536.47;5024289;28;20388;-78
2023/04/08 02:14:18;;;;;;;26.67;18.30;;;;;;;7.71;55.85;101529.25;5013453;28;20388;-78
2023/04/08 02:16:52;;;;;;;27.50;17.70;;;;;;;7.77;55.57;101536.63;5018527;28;20388;-77
2023/04/08 02:19:29;;;;;;;30.00;18.45;;;;;;;7.84;55.75;101537.78;5027405;28;20969;-79
2023/04/08 02:22:01;;;;;;;29.08;18.48;;;;;;;7.91;55.32;101537.25;5025467;28;20414;-79
2023/04/08 02:24:28;;;;;;;30.60;19.23;;;;;;;7.94;55.16;101536.97;5024284;28;20410;-78
2023/04/08 02:26:55;;;;;;;27.42;17.77;;;;;;;7.97;55.16;101547.28;5026667;28;20441;-79
2023/04/08 02:29:22;;;;;;;30.83;18.98;;;;;;;8.07;54.90;101542.88;5020640;28;20387;-79
2023/04/08 02:31:50;;;;;;;28.30;18.17;;;;;;;8.01;54.92;101536.34;5021276;28;20390;-78
2023/04/08 02:34:16;;;;;;;31.40;19.13;;;;;;;8.02;54.72;101531.88;5030611;28;20994;-78
2023/04/08 02:36:44;;;;;;;31.70;17.90;;;;;;;8.00;55.22;101534.66;5024459;28;20398;-78
2023/04/08 02:39:10;;;;;;;30.15;18.48;;;;;;;8.04;55.04;101541.31;5028239;28;20390;-79
2023/04/08 02:41:36;;;;;;;27.10;17.13;;;;;;;8.04;54.74;101540.50;5014874;28;20415;-77
2023/04/08 02:44:01;;;;;;;26.05;16.98;;;;;;;8.04;54.69;101549.25;5023507;28;20887;-78
2023/04/08 02:46:27;;;;;;;29.87;17.33;;;;;;;8.05;54.61;101547.47;5029635;28;20858;-77
2023/04/08 02:48:52;;;;;;;28.80;17.20;;;;;;;8.06;54.78;101553.56;5022899;28;20427;-78
2023/04/08 02:51:18;;;;;;;28.77;17.23;;;;;;;7.96;54.45;101541.19;5014673;28;20404;-77
2023/04/08 02:53:43;;;;;;;29.65;17.10;;;;;;;7.95;54.79;101547.41;5025620;28;20419;-78
2023/04/08 02:56:10;;;;;;;28.67;17.50;;;;;;;7.92;54.76;101557.41;5024530;28;20407;-78
2023/04/08 02:58:35;;;;;;;26.73;16.50;;;;;;;7.90;54.61;101544.31;5024662;28;20397;-79
2023/04/08 03:01:01;;;;;;;27.90;16.88;;;;;;;7.97;54.61;101556.03;5016608;28;20392;-79
2023/04/08 03:03:28;;;;;;;31.67;17.83;;;;;;;8.14;54.14;101561.66;5020752;28;20391;-79
2023/04/08 03:05:55;;;;;;;26.55;16.92;;;;;;;8.20;53.95;101564.59;5018854;28;20956;-78
2023/04/08 03:08:20;;;;;;;27.90;16.85;;;;;;;8.23;54.11;101566.16;5022459;28;20392;-79
2023/04/08 03:10:46;;;;;;;27.17;16.48;;;;;;;8.17;53.98;101559.59;5019727;28;20395;-78
2023/04/08 03:13:12;;;;;;;28.02;17.05;;;;;;;8.25;54.01;101569.50;5016562;28;20400;-79
2023/04/08 03:15:37;;;;;;;28.30;18.17;;;;;;;8.32;53.95;101572.44;5029626;28;20392;-78
2023/04/08 03:18:03;;;;;;;32.33;17.50;;;;;;;8.36;53.69;101561.47;5021063;28;20409;-78
2023/04/08 03:20:28;;;;;;;28.23;19.48;;;;;;;8.35;53.83;101564.25;5016397;28;20395;-78
2023/04/08 03:22:54;;;;;;;26.55;18.98;;;;;;;8.38;53.67;101564.81;5035131;28;20478;-78
2023/04/08 03:25:19;;;;;;;30.80;17.50;;;;;;;8.39;53.38;101561.22;5023541;28;20428;-78
2023/04/08 03:27:45;;;;;;;26.83;18.90;;;;;;;8.36;53.67;101558.81;5035503;28;20906;-80
2023/04/08 03:30:10;;;;;;;28.85;16.90;;;;;;;8.41;53.67;101575.13;5030459;28;20387;-78
2023/04/08 03:32:36;;;;;;;22.70;15.77;;;;;;;8.31;53.63;101578.69;5035418;28;20413;-79
2023/04/08 03:35:01;;;;;;;26.30;22.17;;;;;;;8.27;54.01;101580.75;5022438;28;20737;-78
2023/04/08 03:37:27;;;;;;;30.05;18.95;;;;;;;8.26;53.76;101578.25;5027864;28;20496;-78
2023/04/08 03:39:54;;;;;;;26.17;16.30;;;;;;;8.27;54.03;101572.84;5028627;28;20481;-78
2023/04/08 03:42:19;;;;;;;27.75;16.00;;;;;;;8.27;53.75;101593.16;5021245;28;20395;-79
2023/04/08 03:44:44;;;;;;;21.17;14.70;;;;;;;8.21;54.35;101594.50;5032690;28;20414;-78
2023/04/08 03:47:10;;;;;;;26.92;16.52;;;;;;;8.18;54.37;101605.34;5017662;28;20396;-78
2023/04/08 03:49:35;;;;;;;24.37;16.03;;;;;;;8.24;53.91;101607.44;5031392;28;20425;-78
2023/04/08 03:52:01;;;;;;;24.87;16.77;;;;;;;8.23;53.92;101597.84;5018736;28;20412;-78
2023/04/08 03:54:27;;;;;;;28.23;17.02;;;;;;;8.26;53.87;101597.56;5014071;28;20392;-78
2023/04/08 03:56:52;;;;;;;26.27;16.75;;;;;;;8.34;53.81;101596.94;5015021;28;20404;-78
2023/04/08 03:59:18;;;;;;;33.97;23.30;;;;;;;8.32;53.98;101601.47;5029208;28;20393;-79
2023/04/08 04:01:43;;;;;;;26.97;16.87;;;;;;;8.36;53.95;101598.44;5018132;28;20404;-78
2023/04/08 04:04:09;;;;;;;23.33;16.00;;;;;;;8.20;54.20;101598.94;5026919;28;20396;-78
2023/04/08 04:06:34;;;;;;;27.30;16.40;;;;;;;8.04;54.68;101602.06;5025008;28;20492;-78
2023/04/08 04:09:00;;;;;;;24.47;15.93;;;;;;;8.04;55.00;101601.22;5019347;28;20865;-77
2023/04/08 04:11:26;;;;;;;25.43;16.60;;;;;;;7.95;55.31;101602.03;5020866;28;20383;-79
2023/04/08 04:13:51;;;;;;;28.17;16.90;;;;;;;7.79;55.55;101591.94;5029039;28;20391;-78
2023/04/08 04:16:16;;;;;;;22.15;15.98;;;;;;;7.77;55.74;101599.16;5013621;28;20400;-78
2023/04/08 04:18:42;;;;;;;26.10;16.27;;;;;;;7.82;55.41;101599.59;5013358;28;20388;-78
2023/04/08 04:21:07;;;;;;;22.70;16.47;;;;;;;7.87;55.85;101593.91;5018751;28;20868;-79
2023/04/08 04:23:33;;;;;;;25.67;16.80;;;;;;;7.82;55.80;101600.41;5020962;28;20451;-78
2023/04/08 04:25:58;;;;;;;26.47;17.20;;;;;;;7.85;55.81;101586.97;5029291;28;20497;-78
2023/04/08 04:28:24;;;;;;;30.50;18.20;;;;;;;7.79;55.62;101584.84;5030648;28;20466;-78
2023/04/08 04:30:49;;;;;;;40.60;22.10;;;;;;;7.77;56.34;101591.22;5031670;28;20394;-78
2023/04/08 04:33:15;;;;;;;43.13;23.80;;;;;;;7.77;56.15;101599.16;5033064;28;20387;-79
2023/04/08 04:35:40;;;;;;;42.53;24.70;;;;;;;7.73;56.12;101595.09;5033054;28;20462;-78
2023/04/08 04:38:11;;;;;;;42.75;23.05;;;;;;;7.72;56.02;101596.06;5029374;28;20448;-78
2023/04/08 04:40:36;;;;;;;37.97;22.38;;;;;;;7.63;56.43;101605.56;5014304;28;20407;-78
2023/04/08 04:43:02;;;;;;;36.07;21.73;;;;;;;7.59;56.67;101607.63;5013739;28;20376;-78
2023/04/08 04:45:27;;;;;;;36.93;21.40;;;;;;;7.69;56.72;101620.91;5031318;28;20474;-78
2023/04/08 04:47:53;;;;;;;38.33;21.17;;;;;;;7.68;56.39;101608.66;5030920;28;20453;-77
2023/04/08 04:50:18;;;;;;;47.07;24.27;;;;;;;7.76;56.47;101619.44;5029024;28;20448;-77
2023/04/08 04:52:44;;;;;;;36.60;21.67;;;;;;;7.78;56.49;101604.28;5012811;28;20428;-78
2023/04/08 04:55:09;;;;;;;30.85;19.33;;;;;;;7.80;56.50;101610.28;5018290;28;20370;-78
2023/04/08 04:57:35;;;;;;;31.30;19.80;;;;;;;7.65;56.50;101607.13;5018163;28;20392;-78
2023/04/08 05:00:00;;;;;;;36.30;19.70;;;;;;;7.60;56.84;101608.50;5014863;28;20387;-77
2023/04/08 05:02:26;;;;;;;31.25;19.10;;;;;;;7.59;56.67;101614.72;5016395;28;20392;-78
2023/04/08 05:04:54;;;;;;;35.20;19.77;;;;;;;7.56;57.34;101615.81;5015554;28;20424;-78
2023/04/08 05:07:21;;;;;;;33.40;20.63;;;;;;;7.57;57.25;101609.56;5017474;28;20395;-78
2023/04/08 05:09:46;;;;;;;37.45;21.05;;;;;;;7.73;56.85;101624.13;5014673;28;20400;-79
2023/04/08 05:12:12;;;;;;;31.95;20.50;;;;;;;7.80;56.89;101622.66;5018747;28;20405;-81
2023/04/08 05:14:38;;;;;;;32.72;20.27;;;;;;;7.78;56.89;101606.09;5016025;28;20391;-79
2023/04/08 05:17:04;;;;;;;35.97;20.85;;;;;;;7.90;56.92;101610.31;5023649;28;20741;-79
2023/04/08 05:19:30;;;;;;;32.78;20.83;;;;;;;7.96;56.58;101623.03;5024802;28;20389;-78
2023/04/08 05:21:55;;;;;;;38.63;22.23;;;;;;;7.97;56.61;101618.56;5013263;28;20399;-78
2023/04/08 05:24:21;;;;;;;32.30;20.65;;;;;;;7.97;56.89;101608.00;5029228;28;20412;-79
2023/04/08 05:26:51;;;;;;;40.67;22.23;;;;;;;8.04;56.70;101614.44;5043008;28;20398;-79
2023/04/08 05:29:17;;;;;;;31.13;19.47;;;;;;;8.02;56.71;101616.38;5032857;28;20395;-78
2023/04/08 05:31:44;;;;;;;29.75;18.85;;;;;;;7.94;56.71;101618.81;5039463;28;20379;-78
2023/04/08 05:34:10;;;;;;;33.75;19.92;;;;;;;7.99;57.04;101611.34;5047454;28;20391;-80
2023/04/08 05:36:35;;;;;;;33.97;18.37;;;;;;;7.98;57.05;101615.81;5019859;28;20420;-80
2023/04/08 05:39:01;;;;;;;45.87;29.20;;;;;;;7.83;57.46;101617.09;5016747;28;20488;-79
2023/04/08 05:41:27;;;;;;;37.87;24.37;;;;;;;7.75;57.58;101614.28;5015927;28;20761;-79
2023/04/08 05:43:52;;;;;;;35.20;23.88;;;;;;;7.69;57.88;101627.97;5017679;28;20491;-79
2023/04/08 05:46:18;;;;;;;40.83;26.63;;;;;;;7.52;58.11;101614.38;5015252;28;20415;-79
2023/04/08 05:48:43;;;;;;;38.20;25.30;;;;;;;7.64;57.97;101621.28;5023450;28;20879;-79
2023/04/08 05:51:16;;;;;;;33.00;22.10;;;;;;;7.73;57.87;101618.84;5025896;28;20386;-79
2023/04/08 05:53:43;;;;;;;35.95;22.20;;;;;;;7.84;57.60;101624.06;5036056;28;20441;-82
2023/04/08 05:56:09;;;;;;;30.58;20.73;;;;;;;8.05;57.10;101631.97;5028535;28;21543;-80
2023/04/08 05:58:34;;;;;;;30.93;20.50;;;;;;;8.19;56.69;101636.03;5024089;28;20410;-79
2023/04/08 06:01:00;;;;;;;28.97;20.40;;;;;;;8.21;56.75;101640.25;5016006;28;20788;-81
2023/04/08 06:03:25;;;;;;;35.15;20.73;;;;;;;8.27;56.47;101636.25;5013491;28;20756;-78
2023/04/08 06:05:51;;;;;;;33.07;20.90;;;;;;;8.46;56.61;101642.59;5029909;28;20416;-79
2023/04/08 06:08:16;;;;;;;32.20;20.70;;;;;;;8.42;56.06;101631.47;5030106;28;21030;-80
2023/04/08 06:10:49;;;;;;;35.90;20.43;;;;;;;8.45;56.14;101636.47;5022416;28;20452;-79
2023/04/08 06:13:15;;;;;;;36.50;21.15;;;;;;;8.50;56.22;101625.50;5027891;28;20388;-79
2023/04/08 06:15:40;;;;;;;36.37;20.80;;;;;;;8.47;55.71;101631.91;5027446;28;20876;-79
2023/04/08 06:18:05;;;;;;;29.27;19.53;;;;;;;8.33;55.90;101640.16;5029711;28;20403;-79
2023/04/08 06:20:31;;;;;;;30.75;20.50;;;;;;;8.32;56.37;101631.41;5013507;28;20403;-79
2023/04/08 06:22:57;;;;;;;31.90;20.95;;;;;;;8.35;56.02;101633.75;5016897;28;20828;-79
2023/04/08 06:25:23;;;;;;;37.05;21.00;;;;;;;8.39;56.49;101635.19;5026786;28;20978;-79
2023/04/08 06:27:49;;;;;;;31.15;19.92;;;;;;;8.50;55.97;101625.50;5021132;28;20862;-80
2023/04/08 06:30:15;;;;;;;37.58;22.23;;;;;;;8.61;56.03;101644.75;5020371;28;20415;-81
2023/04/08 06:32:40;;;;;;;32.25;20.80;;;;;;;8.62;55.96;101642.94;5018752;28;20450;-80
2023/04/08 06:35:07;;;;;;;32.78;19.65;;;;;;;8.56;56.35;101632.91;5019742;28;20417;-81
2023/04/08 06:37:33;;;;;;;28.08;19.63;;;;;;;8.76;56.06;101639.09;5020904;28;20732;-78
2023/04/08 06:39:58;;;;;;;33.73;19.27;;;;;;;8.86;55.57;101644.38;5023671;28;20846;-76
2023/04/08 06:42:24;;;;;;;33.50;19.63;;;;;;;8.84;55.86;101646.31;5013143;28;20906;-78
2023/04/08 06:44:50;;;;;;;30.98;20.10;;;;;;;9.08;55.17;101644.16;5028162;28;20415;-80
2023/04/08 06:47:16;;;;;;;29.07;18.73;;;;;;;9.29;55.24;101643.19;5036355;28;20454;-79
2023/04/08 06:49:41;;;;;;;29.77;17.95;;;;;;;9.30;54.86;101642.22;5035895;28;20381;-78
2023/04/08 06:52:07;;;;;;;27.40;17.10;;;;;;;9.40;54.47;101639.56;5025385;28;20418;-79
2023/04/08 06:54:34;;;;;;;27.15;16.83;;;;;;;9.47;53.82;101638.03;5032335;28;20834;-77
2023/04/08 06:56:59;;;;;;;31.08;18.00;;;;;;;9.29;54.52;101633.47;5029859;28;20467;-77
2023/04/08 06:59:25;;;;;;;30.20;18.37;;;;;;;9.13;54.24;101652.53;5044526;28;20390;-77
2023/04/08 07:01:50;;;;;;;29.50;17.67;;;;;;;9.32;54.00;101643.75;5034153;28;20839;-79
2023/04/08 07:04:16;;;;;;;28.53;18.30;;;;;;;9.61;53.78;101642.06;5033898;28;20386;-80
2023/04/08 07:06:41;;;;;;;26.87;16.50;;;;;;;9.68;53.29;101651.13;5034104;28;20805;-77
2023/04/08 07:09:07;;;;;;;24.20;16.27;;;;;;;9.55;53.22;101651.41;5033839;28;20378;-78
2023/04/08 07:11:33;;;;;;;27.23;15.82;;;;;;;9.43;53.83;101653.34;5032281;28;20380;-77
2023/04/08 07:13:58;;;;;;;23.80;14.17;;;;;;;9.80;55.38;101649.19;5021146;28;20811;-77
2023/04/08 07:16:24;;;;;;;24.73;17.52;;;;;;;10.17;54.37;101653.69;5029707;28;20378;-78
2023/04/08 07:18:50;;;;;;;24.42;15.80;;;;;;;10.08;52.71;101647.41;5033459;28;20905;-78
2023/04/08 07:21:16;;;;;;;24.50;16.02;;;;;;;9.97;52.35;101643.13;5030227;28;20388;-79
2023/04/08 07:23:41;;;;;;;26.30;15.50;;;;;;;10.26;51.64;101650.16;5039857;28;20418;-77
2023/04/08 07:26:06;;;;;;;29.00;17.58;;;;;;;10.29;51.21;101644.56;5019852;28;20411;-77
2023/04/08 07:28:32;;;;;;;31.73;18.03;;;;;;;10.29;50.95;101645.41;5019394;28;20399;-78
2023/04/08 07:31:11;;;;;;;29.07;16.80;;;;;;;10.48;50.66;101646.38;5014069;28;20402;-77
2023/04/08 07:33:37;;;;;;;26.50;17.23;;;;;;;10.80;49.85;101651.19;5021699;28;20378;-78
2023/04/08 07:36:02;;;;;;;28.23;18.47;;;;;;;10.74;49.09;101643.84;5019221;28;20384;-78
2023/04/08 07:38:28;;;;;;;22.17;16.23;;;;;;;10.79;49.04;101635.44;5014721;28;20384;-79
2023/04/08 07:40:53;;;;;;;38.03;34.00;;;;;;;10.69;48.95;101646.09;5014853;28;20868;-78
2023/04/08 07:43:19;;;;;;;30.53;21.27;;;;;;;10.63;49.14;101660.78;5018911;28;20390;-77
2023/04/08 07:45:45;;;;;;;24.35;14.88;;;;;;;10.92;48.69;101659.78;5040782;28;20411;-79
2023/04/08 07:48:10;;;;;;;45.72;28.55;;;;;;;11.03;48.14;101666.72;5033419;28;20441;-78
2023/04/08 07:50:36;;;;;;;24.88;17.80;;;;;;;11.12;48.14;101657.84;5033155;28;20421;-77
2023/04/08 07:53:02;;;;;;;39.22;22.13;;;;;;;11.22;48.22;101661.28;5032838;28;20418;-77
2023/04/08 07:55:32;;;;;;;30.95;26.52;;;;;;;11.01;47.55;101653.59;5033303;28;20405;-82
2023/04/08 07:57:58;;;;;;;21.08;18.90;;;;;;;11.03;47.59;101659.56;5033820;28;20418;-79
2023/04/08 08:00:23;;;;;;;45.90;41.17;;;;;;;11.32;47.70;101666.50;5020292;28;20870;-78
2023/04/08 08:02:49;;;;;;;89.43;58.93;;;;;;;11.52;47.46;101667.16;5018907;28;20384;-77
2023/04/08 08:05:15;;;;;;;120.93;65.85;;;;;;;11.63;47.16;101660.78;5028569;28;20512;-77
2023/04/08 08:07:40;;;;;;;99.63;61.83;;;;;;;11.73;46.88;101666.84;5020516;28;20398;-79
2023/04/08 08:10:06;;;;;;;110.00;63.43;;;;;;;11.70;46.88;101669.81;5033455;28;20417;-78
2023/04/08 08:12:32;;;;;;;100.80;61.60;;;;;;;11.73;47.04;101668.69;5022765;28;20768;-79
2023/04/08 08:14:58;;;;;;;102.80;62.20;;;;;;;11.83;46.72;101667.59;5030320;28;20933;-77
2023/04/08 08:17:24;;;;;;;50.55;45.03;;;;;;;11.98;46.12;101670.56;5032688;28;21054;-77
2023/04/08 08:19:49;;;;;;;70.03;51.53;;;;;;;11.78;46.12;101669.88;5032146;28;20393;-77
2023/04/08 08:22:15;;;;;;;109.95;63.00;;;;;;;11.98;45.93;101665.25;5030891;28;20390;-77
2023/04/08 08:24:41;;;;;;;68.35;51.13;;;;;;;12.08;45.44;101664.31;5049393;28;20726;-78
2023/04/08 08:27:10;;;;;;;87.90;56.30;;;;;;;12.25;45.66;101668.75;5049674;28;20389;-77
2023/04/08 08:29:36;;;;;;;36.60;31.42;;;;;;;12.43;44.88;101669.50;5049642;28;20420;-77
2023/04/08 08:32:02;;;;;;;28.40;20.02;;;;;;;12.38;44.54;101668.31;5049962;28;20384;-77
2023/04/08 08:34:28;;;;;;;26.90;14.10;;;;;;;12.42;44.46;101675.81;5034884;28;20454;-79
2023/04/08 08:36:54;;;;;;;25.23;21.27;;;;;;;12.43;44.30;101669.50;5051354;28;20396;-77
2023/04/08 08:39:20;;;;;;;41.08;22.50;;;;;;;12.09;44.20;101666.00;5051396;28;20868;-79
2023/04/08 08:41:46;;;;;;;30.55;26.02;;;;;;;12.27;44.24;101666.75;5051488;28;20380;-78
2023/04/08 08:44:12;;;;;;;18.97;12.97;;;;;;;12.45;44.28;101673.84;5051384;28;20388;-78
2023/04/08 08:46:43;;;;;;;21.73;13.57;;;;;;;12.47;43.94;101664.69;5051830;28;20863;-78
2023/04/08 08:49:09;;;;;;;26.88;20.58;;;;;;;12.30;44.11;101658.47;5034800;28;20394;-78
2023/04/08 08:51:35;;;;;;;23.35;15.48;;;;;;;12.22;44.12;101669.03;5051820;28;20392;-80
2023/04/08 08:54:03;;;;;;;34.97;29.27;;;;;;;11.94;44.38;101668.34;5052488;28;20754;-78
2023/04/08 08:56:30;;;;;;;23.20;14.00;;;;;;;12.09;44.56;101668.66;5035849;28;20394;-77
2023/04/08 08:58:56;;;;;;;20.37;11.23;;;;;;;12.30;43.89;101671.75;5033160;28;20811;-77
2023/04/08 09:01:36;;;;;;;19.00;12.20;;;;;;;12.41;43.39;101673.31;5034644;28;20496;-78
2023/04/08 09:04:11;;;;;;;18.77;11.20;;;;;;;12.32;42.24;101669.78;5034167;28;20386;-78
2023/04/08 09:06:37;;;;;;;17.83;11.23;;;;;;;12.34;42.29;101667.78;5033839;28;20490;-79
2023/04/08 09:09:10;;;;;;;18.00;10.98;;;;;;;12.29;42.42;101664.75;5033730;28;20846;-78
2023/04/08 09:11:40;;;;;;;15.10;10.85;;;;;;;12.47;42.44;101666.53;5032550;28;20883;-78
2023/04/08 09:14:23;;;;;;;16.20;11.10;;;;;;;12.50;42.40;101674.19;5032755;28;20439;-76
2023/04/08 09:16:49;;;;;;;19.42;11.70;;;;;;;12.48;42.49;101677.00;5032540;28;20855;-77
2023/04/08 09:19:15;;;;;;;19.67;11.93;;;;;;;12.58;42.36;101672.38;5032300;28;20375;-78
2023/04/08 09:21:41;;;;;;;19.70;11.70;;;;;;;12.78;42.32;101667.66;5033161;28;20394;-79
2023/04/08 09:24:07;;;;;;;21.43;11.67;;;;;;;13.08;42.23;101670.72;5032944;28;20931;-79
2023/04/08 09:26:34;;;;;;;20.25;11.73;;;;;;;13.09;42.13;101671.56;5033910;28;20446;-78
2023/04/08 09:29:07;;;;;;;15.85;11.23;;;;;;;13.28;41.92;101665.94;5033960;28;20417;-79
2023/04/08 09:31:41;;;;;;;17.75;11.88;;;;;;;13.36;41.91;101671.31;5035261;28;20386;-78
2023/04/08 09:34:16;;;;;;;16.17;10.90;;;;;;;13.05;41.63;101670.22;5037266;28;20440;-78
2023/04/08 09:36:43;;;;;;;15.47;10.63;;;;;;;12.91;42.20;101675.19;5037650;28;20467;-79
2023/04/08 09:39:09;;;;;;;19.13;11.27;;;;;;;13.30;41.86;101677.25;5032381;28;20451;-78
2023/04/08 09:41:36;;;;;;;13.55;10.40;;;;;;;13.42;41.48;101655.69;5031869;28;20461;-78
2023/04/08 09:44:04;;;;;;;19.35;13.70;;;;;;;13.54;41.87;101657.84;5032950;28;20389;-77
2023/04/08 09:46:52;;;;;;;17.30;14.00;;;;;;;13.57;41.50;101656.66;5033075;28;20402;-78
2023/04/08 09:49:26;;;;;;;29.57;24.80;;;;;;;13.54;41.83;101671.16;5031442;28;20720;-78
2023/04/08 09:52:10;;;;;;;48.78;34.70;;;;;;;13.46;41.95;101657.84;5036210;28;20378;-77
2023/04/08 09:54:39;;;;;;;27.00;23.98;;;;;;;13.44;41.95;101659.00;5013698;28;20920;-79
2023/04/08 09:57:21;;;;;;;25.88;23.10;;;;;;;13.41;41.92;101657.50;5011986;28;20403;-79
2023/04/08 10:00:00;;;;;;;34.33;23.85;;;;;;;13.54;41.95;101654.31;5013410;28;20783;-79
2023/04/08 10:02:30;;;;;;;16.40;11.07;;;;;;;13.62;41.69;101654.34;5012751;28;20388;-77
2023/04/08 10:04:59;;;;;;;22.25;13.85;;;;;;;13.79;41.62;101659.66;5011957;28;20423;-77
2023/04/08 10:07:24;;;;;;;17.52;12.15;;;;;;;13.66;41.21;101660.16;5011083;28;20772;-77
2023/04/08 10:09:50;;;;;;;49.92;35.95;;;;;;;13.55;41.17;101659.50;5010720;28;20495;-77
2023/04/08 10:12:16;;;;;;;29.23;26.20;;;;;;;13.63;41.73;101658.69;5011460;28;20445;-77
2023/04/08 10:15:01;;;;;;;41.10;36.90;;;;;;;13.61;41.30;101651.84;5011328;28;20403;-77
2023/04/08 10:17:27;;;;;;;46.50;41.35;;;;;;;13.51;41.67;101660.00;5010624;28;20837;-77
2023/04/08 10:19:53;;;;;;;113.22;48.97;;;;;;;13.61;41.85;101665.97;5011104;28;20412;-77
2023/04/08 10:22:28;;;;;;;54.75;39.85;;;;;;;13.59;41.73;101662.66;5012141;28;20415;-77
2023/04/08 10:25:18;;;;;;;30.08;27.13;;;;;;;13.57;41.93;101654.81;5012032;28;20481;-78
2023/04/08 10:27:44;;;;;;;24.50;22.10;;;;;;;13.75;41.85;101653.84;5011830;28;20375;-78
2023/04/08 10:30:25;;;;;;;28.98;26.00;;;;;;;13.95;41.57;101643.63;5011646;28;20438;-79
2023/04/08 10:32:51;;;;;;;34.25;29.77;;;;;;;14.06;41.51;101647.78;5012016;28;20395;-77
2023/04/08 10:35:16;;;;;;;18.15;12.30;;;;;;;14.10;41.39;101639.28;5012445;28;20430;-78
2023/04/08 10:37:42;;;;;;;17.10;10.90;;;;;;;13.79;41.32;101651.66;5012167;28;20438;-78
2023/04/08 10:40:18;;;;;;;17.80;11.00;;;;;;;14.11;41.56;101643.59;5012270;28;20797;-77
2023/04/08 10:42:44;;;;;;;16.13;10.43;;;;;;;14.24;40.74;101645.75;5012105;28;20376;-78
2023/04/08 10:45:09;;;;;;;17.47;10.60;;;;;;;14.27;40.74;101637.41;5017152;28;20396;-78
2023/04/08 10:47:35;;;;;;;16.63;10.65;;;;;;;14.19;40.90;101641.91;5032678;28;20395;-77
2023/04/08 10:50:11;;;;;;;18.38;11.10;;;;;;;14.50;40.84;101642.81;5031771;28;20447;-78
2023/04/08 10:52:53;;;;;;;21.02;11.68;;;;;;;14.50;40.59;101636.66;5031610;28;20418;-77
2023/04/08 10:55:25;;;;;;;18.30;10.13;;;;;;;14.40;40.48;101636.03;5031071;28;20387;-77
2023/04/08 10:57:52;;;;;;;13.80;10.70;;;;;;;14.37;40.11;101647.03;5012358;28;20393;-79
2023/04/08 11:00:19;;;;;;;16.40;11.60;;;;;;;14.26;39.93;101641.09;5011192;28;20857;-78
2023/04/08 11:02:44;;;;;;;14.95;10.05;;;;;;;14.36;39.68;101642.72;5011434;28;20395;-78
2023/04/08 11:05:10;;;;;;;17.10;10.95;;;;;;;14.40;39.35;101631.50;5013689;28;20408;-79
2023/04/08 11:07:42;;;;;;;17.20;10.90;;;;;;;14.36;38.95;101646.22;5013051;28;20471;-78
2023/04/08 11:10:08;;;;;;;13.95;10.02;;;;;;;14.52;38.79;101639.97;5010168;28;20461;-77
2023/04/08 11:12:36;;;;;;;27.30;24.50;;;;;;;14.50;38.95;101634.00;5011756;28;20376;-78
2023/04/08 11:15:02;;;;;;;37.25;33.80;;;;;;;14.62;39.43;101629.97;5012331;28;20387;-78